Sequim, WA

5:21 AM PST on February 10, 2016 (GMT -0800)
Taylor Cutoff Rd | | Change Station
CLOSE
Current Station
Personal Weather Station
Location: Carlsborg, WA
Elevation: 246 ft
Nearby Weather Stations

Elev 246 ft 48.08 °N, 123.16 °W | Updated 8 minutes ago

Mostly Cloudy
Mostly Cloudy
38.7 °F
Feels Like 39 °F
N
1.0
Wind Variable Wind from SSW
Gusts 3.6 mph

Today
High -- | Low -- °F
--% Chance of Precip.
Yesterday
High -- | Low -- °F
Precip. -- in
Pressure 30.06 in
Visibility 9.0 miles
Clouds Few 9000 ft
Mostly Cloudy 11000 ft
Windchill 39 °F
Dew Point 39 °F
Humidity 100%
Rainfall Not available.
Snow Depth Not available.
7:27 AM 5:26 PM
Waxing Crescent, 5% visible
METAR KCLM 101253Z AUTO 13004KT 9SM FEW090 BKN110 06/04 A3005 RMK AO2 SLP178 T00560044
Pressure 30.06 in
Visibility 9.0 miles
Clouds Few 9000 ft
Mostly Cloudy 11000 ft
Windchill 39 °F
Dew Point 39 °F
Humidity 100%
Rainfall Not available.
Snow Depth Not available.
7:27 AM 5:26 PM
Waxing Crescent, 5% visible
METAR KCLM 101253Z AUTO 13004KT 9SM FEW090 BKN110 06/04 A3005 RMK AO2 SLP178 T00560044

10-Day Weather Forecast

Almanac

Astronomy

Feb. 10, 2016 Rise Set
Actual Time
Civil Twilight
Nautical Twilight
Astronomical Twilight
Moon
Length of Visible Light
Length of Day
Tomorrow will be .
, % of the Moon is Illuminated

Today's Extremes

State Highs State Lows

Community

WunderPhotos

Upload Photos

1,891,840 photos uploaded!

WunderBlog® & News

Nearby

Air Quality

  Air Quality AQ Index Pollutant
Not available.

Snow Depth

Station Depth Elevation

Earthquake Activity

City Distance Mag. Time & Date
Minimum magnitude displayed is 2.5.

Coastal Water Temperatures

Place Temperature

Stations

Nearby Weather Stations

Station Location Temp. Windchill Dew Point Humidity Wind Precip. Elev Updated Type
                   

Watches & Warnings

There are currently no watches in effect.